WetterOnline ( https://www.wetteronline.de )

Wetter aktuell Wolfhagen

Aktuelles Wetter: Schauenburg-Elgershausen (317m)

6-stündlich | Neueste Meldungen
Ortszeit Temperatur Wetter
Do, 29.02. 13:00 7.3° C fast wolkenlos
Do, 29.02. 7:00 0.6° C wolkenlos
Do, 29.02. 1:00 1.8° C leicht bewölkt
Mi, 28.02. 19:00 3.6° C bedeckt
Mi, 28.02. 13:00 2.3° C bedeckt
Mi, 28.02. 7:00 -1.5° C Nebel
Mi, 28.02. 1:00 -1.2° C wolkenlos
Di, 27.02. 19:00 4.5° C leicht bewölkt
Ortszeit Temperatur Wetter
Do, 29.02. 17:00 9.2° C leicht bewölkt
Do, 29.02. 16:50 9.2° C wolkig
Do, 29.02. 16:40 9.2° C bewölkt
Do, 29.02. 16:30 9.3° C bedeckt
Do, 29.02. 16:20 9.3° C bedeckt
Do, 29.02. 16:10 9.4° C bedeckt
Do, 29.02. 16:00 9.4° C wolkig
Do, 29.02. 15:30 9.4° C leicht bewölkt
Do, 29.02. 15:00 9.1° C fast wolkenlos
Do, 29.02. 14:30 8.7° C leicht bewölkt
Do, 29.02. 14:00 8.6° C fast wolkenlos
Ortszeit Relative Feuchte Sichtweite
Do, 29.02. 13:00 70% 17 km
Do, 29.02. 7:00 87% 13 km
Do, 29.02. 1:00 80% 35 km
Mi, 28.02. 19:00 78% 24 km
Mi, 28.02. 13:00 91% 5.0 km
Mi, 28.02. 7:00 99% 100 m
Mi, 28.02. 1:00 95% 6 km
Di, 27.02. 19:00 77% 29 km
Ortszeit Relative Feuchte Sichtweite
Do, 29.02. 17:00 56% 35 km
Do, 29.02. 16:50 56% -
Do, 29.02. 16:40 56% -
Do, 29.02. 16:30 54% 35 km
Do, 29.02. 16:20 54% -
Do, 29.02. 16:10 55% -
Do, 29.02. 16:00 53% 50 km
Do, 29.02. 15:30 54% 30 km
Do, 29.02. 15:00 59% 28 km
Do, 29.02. 14:30 59% 29 km
Do, 29.02. 14:00 64% 23 km
Ortszeit Niederschlagsmenge Niederschlagsart
Do, 29.02. 13:00 0.0 l/m2 in 6 Std. -
Do, 29.02. 7:00 0.0 l/m2 in 12 Std. -
Do, 29.02. 1:00 0.0 l/m2 in 6 Std. -
Mi, 28.02. 19:00 0.0 l/m2 in 12 Std. -
Mi, 28.02. 13:00 0.0 l/m2 in 6 Std. -
Mi, 28.02. 7:00 0.0 l/m2 in 12 Std. -
Mi, 28.02. 1:00 0.0 l/m2 in 6 Std. -
Di, 27.02. 19:00 0.0 l/m2 in 12 Std. -
Ortszeit Niederschlagsmenge Niederschlagsart
Do, 29.02. 17:00 0.0 l/m2 in 1 Std. -
Do, 29.02. 16:50 keine Meldung -
Do, 29.02. 16:40 keine Meldung -
Do, 29.02. 16:30 0.0 l/m2 in 30 Min -
Do, 29.02. 16:20 keine Meldung -
Do, 29.02. 16:10 keine Meldung -
Do, 29.02. 16:00 0.0 l/m2 in 1 Std. -
Do, 29.02. 15:30 0.0 l/m2 in 30 Min -
Do, 29.02. 15:00 0.0 l/m2 in 1 Std. -
Do, 29.02. 14:30 0.0 l/m2 in 30 Min -
Do, 29.02. 14:00 0.0 l/m2 in 1 Std. -
Ortszeit Stärke Spitze Richtung
km/h Bft. km/h Grad Sektor
Do, 29.02. 13:00 18 3 32 170° S
Do, 29.02. 7:00 4 1 7 80° O
Do, 29.02. 1:00 4 1 11 60° NO
Mi, 28.02. 19:00 4 1 14 360° N
Mi, 28.02. 13:00 9 2 15 150° SO
Mi, 28.02. 7:00 2 1 13 300° NW
Mi, 28.02. 1:00 6 1 15 360° N
Di, 27.02. 19:00 7 2 25 300° NW
Ortszeit Stärke Spitze Richtung
km/h Bft. km/h Grad Sektor
Do, 29.02. 17:00 11 2 29 170° S
Do, 29.02. 16:50 11 2 - 170° S
Do, 29.02. 16:40 13 3 - 160° S
Do, 29.02. 16:30 18 3 29 160° S
Do, 29.02. 16:20 18 3 - 160° S
Do, 29.02. 16:10 17 3 - 160° S
Do, 29.02. 16:00 18 3 32 170° S
Do, 29.02. 15:30 18 3 29 160° S
Do, 29.02. 15:00 18 3 32 180° S
Do, 29.02. 14:30 18 3 29 150° SO
Do, 29.02. 14:00 20 4 35 180° S
Ortszeit Untergrenze Bedeckung Gattung
total tief tief mittel hoch
Do, 29.02. 13:00 570 m 1/8 1/8 - - -
Do, 29.02. 7:00 - 0/8 0/8 - - -
Do, 29.02. 1:00 3900 m 2/8 2/8 - - -
Mi, 28.02. 19:00 4800 m 8/8 8/8 - - -
Mi, 28.02. 13:00 120 m 8/8 8/8 - - -
Mi, 28.02. 7:00 <30 m 8/8 0/8 - - -
Mi, 28.02. 1:00 - 0/8 0/8 - - -
Di, 27.02. 19:00 9000 m 4/8 0/8 - - -
Ortszeit Bedeckungsgrad in Achtel und Wolkenuntergrenze
Do, 29.02. 17:00 1(3900m) 7(9000m) 7(10500m)
Do, 29.02. 16:50 1(3900m) 7(9000m) 7(10500m)
Do, 29.02. 16:40 7
Do, 29.02. 16:30 8(3900m) 8(10500m)
Do, 29.02. 16:20 8(3900m) 8(10500m)
Do, 29.02. 16:10 8
Do, 29.02. 16:00 5(3900m) 6(10500m)
Do, 29.02. 15:30 3(10500m)
Do, 29.02. 15:00 1(10500m)
Do, 29.02. 14:30 4(10500m)
Do, 29.02. 14:00 1(10500m)
Ortszeit Luftdruck NN (hPa) Tendenz (hPa in 3 Std.)
Do, 29.02. 13:00 1014 - 2,1
Do, 29.02. 7:00 1018 - 1,4
Do, 29.02. 1:00 1021 - 0,9
Mi, 28.02. 19:00 1022 0,0
Mi, 28.02. 13:00 1024 + 0,2
Mi, 28.02. 7:00 1022 + 1,3
Mi, 28.02. 1:00 1020 + 0,2
Di, 27.02. 19:00 1018 + 1,2
Ortszeit Luftdruck NN (hPa) Tendenz (hPa in 3 Std.)
Do, 29.02. 17:00 1010 - 2,9
Do, 29.02. 16:50 1010 keine Meldung
Do, 29.02. 16:40 1010 keine Meldung
Do, 29.02. 16:30 1010 - 2,9
Do, 29.02. 16:20 1010 keine Meldung
Do, 29.02. 16:10 1011 keine Meldung
Do, 29.02. 16:00 1011 - 3,1
Do, 29.02. 15:30 1011 - 3,2
Do, 29.02. 15:00 1012 - 3,2
Do, 29.02. 14:30 1012 - 3,0
Do, 29.02. 14:00 1013 - 2,6
Ortszeit Schneehöhe (cm)
Do, 29.02. 13:00 0
Do, 29.02. 7:00 0
Do, 29.02. 1:00 0
Mi, 28.02. 19:00 0
Mi, 28.02. 13:00 0
Mi, 28.02. 7:00 0
Mi, 28.02. 1:00 0
Di, 27.02. 19:00 0
Ortszeit Schneehöhe (cm)
Do, 29.02. 17:00 0
Do, 29.02. 16:50 0
Do, 29.02. 16:40 -
Do, 29.02. 16:30 0
Do, 29.02. 16:20 0
Do, 29.02. 16:10 -
Do, 29.02. 16:00 0
Do, 29.02. 15:30 0
Do, 29.02. 15:00 0
Do, 29.02. 14:30 0
Do, 29.02. 14:00 0
Link zu dieser Seite / Seite empfehlen

Das Wetter in ...